sensor_id;sensor_type;location;lat;lon;timestamp;pressure;altitude;pressure_sealevel;temperature;humidity
42519;BME280;28147;47.520;18.920;2023-02-01T00:33:52;98408.09;;;4.91;73.40
42519;BME280;28147;47.520;18.920;2023-02-01T00:38:02;98400.41;;;5.03;72.99
42519;BME280;28147;47.520;18.920;2023-02-01T00:43:06;98416.22;;;4.96;72.40
42519;BME280;28147;47.520;18.920;2023-02-01T00:46:04;98403.38;;;4.80;72.85
42519;BME280;28147;47.520;18.920;2023-02-01T00:50:18;98414.56;;;4.88;72.55
42519;BME280;28147;47.520;18.920;2023-02-01T00:52:44;98418.28;;;5.01;72.17
42519;BME280;28147;47.520;18.920;2023-02-01T00:55:09;98421.22;;;4.78;72.67
42519;BME280;28147;47.520;18.920;2023-02-01T00:57:35;98421.22;;;4.78;72.43
42519;BME280;28147;47.520;18.920;2023-02-01T01:00:00;98415.03;;;4.57;73.79
42519;BME280;28147;47.520;18.920;2023-02-01T01:03:57;98404.81;;;4.82;72.48
42519;BME280;28147;47.520;18.920;2023-02-01T01:07:13;98405.59;;;4.76;72.84
42519;BME280;28147;47.520;18.920;2023-02-01T01:09:39;98397.13;;;4.87;71.86
42519;BME280;28147;47.520;18.920;2023-02-01T01:12:04;98383.75;;;4.48;73.17
42519;BME280;28147;47.520;18.920;2023-02-01T01:18:35;98356.03;;;4.17;73.77
42519;BME280;28147;47.520;18.920;2023-02-01T01:21:26;98363.56;;;4.27;73.35
42519;BME280;28147;47.520;18.920;2023-02-01T01:24:18;98359.63;;;4.09;73.62
42519;BME280;28147;47.520;18.920;2023-02-01T01:27:33;98358.28;;;4.27;72.67
42519;BME280;28147;47.520;18.920;2023-02-01T01:32:19;98343.25;;;4.55;71.74
42519;BME280;28147;47.520;18.920;2023-02-01T01:34:45;98338.16;;;4.47;71.77
42519;BME280;28147;47.520;18.920;2023-02-01T01:37:38;98341.84;;;4.59;70.96
42519;BME280;28147;47.520;18.920;2023-02-01T01:40:05;98343.91;;;4.71;71.17
42519;BME280;28147;47.520;18.920;2023-02-01T01:42:37;98346.00;;;4.82;70.29
42519;BME280;28147;47.520;18.920;2023-02-01T01:46:27;98353.66;;;4.70;70.61
42519;BME280;28147;47.520;18.920;2023-02-01T01:51:24;98362.41;;;4.77;70.11
42519;BME280;28147;47.520;18.920;2023-02-01T01:54:06;98356.88;;;4.72;69.85
42519;BME280;28147;47.520;18.920;2023-02-01T02:07:46;98350.06;;;4.91;69.26
42519;BME280;28147;47.520;18.920;2023-02-01T02:11:12;98347.56;;;4.28;71.27
42519;BME280;28147;47.520;18.920;2023-02-01T02:14:11;98341.81;;;4.53;70.38
42519;BME280;28147;47.520;18.920;2023-02-01T02:59:38;98319.00;;;4.86;68.92
42519;BME280;28147;47.520;18.920;2023-02-01T03:25:02;98317.53;;;4.71;68.42
42519;BME280;28147;47.520;18.920;2023-02-01T03:34:46;98326.66;;;4.68;68.48
42519;BME280;28147;47.520;18.920;2023-02-01T03:46:11;98316.50;;;4.58;68.71
42519;BME280;28147;47.520;18.920;2023-02-01T03:50:56;98325.44;;;4.64;68.69
42519;BME280;28147;47.520;18.920;2023-02-01T03:53:23;98317.44;;;4.44;68.90
42519;BME280;28147;47.520;18.920;2023-02-01T03:55:51;98324.78;;;4.55;68.99
42519;BME280;28147;47.520;18.920;2023-02-01T03:58:20;98328.91;;;4.71;68.60
42519;BME280;28147;47.520;18.920;2023-02-01T04:00:57;98325.00;;;4.60;68.97
42519;BME280;28147;47.520;18.920;2023-02-01T04:04:40;98327.44;;;4.62;68.43
42519;BME280;28147;47.520;18.920;2023-02-01T04:07:05;98329.69;;;4.65;68.42
42519;BME280;28147;47.520;18.920;2023-02-01T04:10:08;98329.81;;;4.50;68.57
42519;BME280;28147;47.520;18.920;2023-02-01T04:14:09;98343.03;;;4.57;68.79
42519;BME280;28147;47.520;18.920;2023-02-01T04:20:20;98327.69;;;4.67;68.34
42519;BME280;28147;47.520;18.920;2023-02-01T04:28:39;98334.94;;;4.58;68.42
42519;BME280;28147;47.520;18.920;2023-02-01T04:32:36;98334.09;;;4.51;68.43
42519;BME280;28147;47.520;18.920;2023-02-01T04:39:58;98341.16;;;4.44;68.90
42519;BME280;28147;47.520;18.920;2023-02-01T04:42:24;98342.47;;;4.27;69.33
42519;BME280;28147;47.520;18.920;2023-02-01T04:44:49;98344.56;;;4.38;69.09
42519;BME280;28147;47.520;18.920;2023-02-01T04:47:15;98341.75;;;4.39;69.10
42519;BME280;28147;47.520;18.920;2023-02-01T04:51:32;98353.53;;;4.50;68.85
42519;BME280;28147;47.520;18.920;2023-02-01T04:53:57;98342.84;;;4.58;68.42
42519;BME280;28147;47.520;18.920;2023-02-01T05:03:19;98348.69;;;4.54;68.27
42519;BME280;28147;47.520;18.920;2023-02-01T05:06:01;98357.69;;;4.73;67.53
42519;BME280;28147;47.520;18.920;2023-02-01T05:08:48;98349.50;;;4.48;68.01
42519;BME280;28147;47.520;18.920;2023-02-01T05:12:07;98345.00;;;4.42;68.30
42519;BME280;28147;47.520;18.920;2023-02-01T05:15:03;98362.69;;;4.48;68.25
42519;BME280;28147;47.520;18.920;2023-02-01T05:17:29;98357.44;;;4.61;68.01
42519;BME280;28147;47.520;18.920;2023-02-01T05:19:54;98342.81;;;4.52;67.79
42519;BME280;28147;47.520;18.920;2023-02-01T05:22:20;98346.69;;;4.56;68.05
42519;BME280;28147;47.520;18.920;2023-02-01T05:24:45;98353.78;;;4.55;68.36
42519;BME280;28147;47.520;18.920;2023-02-01T05:38:42;98348.53;;;4.55;68.91
42519;BME280;28147;47.520;18.920;2023-02-01T06:06:22;98359.69;;;4.64;67.83
42519;BME280;28147;47.520;18.920;2023-02-01T06:10:12;98370.84;;;4.59;68.74
42519;BME280;28147;47.520;18.920;2023-02-01T06:14:59;98382.16;;;4.53;68.49
42519;BME280;28147;47.520;18.920;2023-02-01T06:18:34;98386.41;;;4.54;68.47
42519;BME280;28147;47.520;18.920;2023-02-01T06:21:00;98385.97;;;4.51;68.71
42519;BME280;28147;47.520;18.920;2023-02-01T06:26:49;98388.44;;;4.52;68.46
42519;BME280;28147;47.520;18.920;2023-02-01T06:29:15;98387.09;;;4.70;68.06
42519;BME280;28147;47.520;18.920;2023-02-01T06:31:40;98396.59;;;4.64;67.96
42519;BME280;28147;47.520;18.920;2023-02-01T06:35:22;98400.88;;;4.65;67.71
42519;BME280;28147;47.520;18.920;2023-02-01T06:37:48;98408.16;;;4.63;67.85
42519;BME280;28147;47.520;18.920;2023-02-01T06:40:13;98402.66;;;4.58;68.26
42519;BME280;28147;47.520;18.920;2023-02-01T06:42:39;98409.50;;;4.87;67.58
42519;BME280;28147;47.520;18.920;2023-02-01T06:45:04;98405.28;;;4.93;66.80
42519;BME280;28147;47.520;18.920;2023-02-01T06:51:05;98424.59;;;5.06;66.53
42519;BME280;28147;47.520;18.920;2023-02-01T06:53:31;98421.16;;;5.12;66.51
42519;BME280;28147;47.520;18.920;2023-02-01T06:55:59;98438.69;;;5.33;65.77
42519;BME280;28147;47.520;18.920;2023-02-01T06:58:32;98424.25;;;5.29;65.63
42519;BME280;28147;47.520;18.920;2023-02-01T07:01:03;98411.88;;;5.23;65.47
42519;BME280;28147;47.520;18.920;2023-02-01T07:03:29;98415.53;;;5.29;65.75
42519;BME280;28147;47.520;18.920;2023-02-01T07:05:57;98411.47;;;5.33;65.46
42519;BME280;28147;47.520;18.920;2023-02-01T07:08:30;98405.78;;;5.23;65.81
42519;BME280;28147;47.520;18.920;2023-02-01T07:11:00;98405.34;;;5.26;65.45
42519;BME280;28147;47.520;18.920;2023-02-01T07:13:26;98407.22;;;5.32;65.80
42519;BME280;28147;47.520;18.920;2023-02-01T07:20:02;98423.31;;;5.70;64.52
42519;BME280;28147;47.520;18.920;2023-02-01T07:22:28;98427.59;;;5.71;64.43
42519;BME280;28147;47.520;18.920;2023-02-01T07:24:54;98435.91;;;5.75;64.01
42519;BME280;28147;47.520;18.920;2023-02-01T07:27:19;98441.63;;;5.85;63.75
42519;BME280;28147;47.520;18.920;2023-02-01T07:29:45;98434.50;;;5.79;64.04
42519;BME280;28147;47.520;18.920;2023-02-01T07:32:10;98435.56;;;5.91;63.52
42519;BME280;28147;47.520;18.920;2023-02-01T07:34:36;98440.06;;;6.11;62.67
42519;BME280;28147;47.520;18.920;2023-02-01T07:37:01;98438.03;;;5.99;63.27
42519;BME280;28147;47.520;18.920;2023-02-01T07:39:28;98441.47;;;6.00;62.89
42519;BME280;28147;47.520;18.920;2023-02-01T07:41:53;98442.47;;;6.12;62.63
42519;BME280;28147;47.520;18.920;2023-02-01T07:44:19;98440.84;;;6.38;61.86
42519;BME280;28147;47.520;18.920;2023-02-01T07:46:48;98444.47;;;6.56;61.38
42519;BME280;28147;47.520;18.920;2023-02-01T07:49:55;98443.69;;;6.49;61.42
42519;BME280;28147;47.520;18.920;2023-02-01T07:52:20;98439.69;;;6.92;59.98
42519;BME280;28147;47.520;18.920;2023-02-01T07:54:46;98449.72;;;6.76;60.26
42519;BME280;28147;47.520;18.920;2023-02-01T07:57:11;98450.97;;;6.61;60.84
42519;BME280;28147;47.520;18.920;2023-02-01T07:59:37;98442.03;;;6.55;59.74
42519;BME280;28147;47.520;18.920;2023-02-01T08:02:22;98443.81;;;6.81;60.09
42519;BME280;28147;47.520;18.920;2023-02-01T08:04:48;98450.03;;;7.13;58.59
42519;BME280;28147;47.520;18.920;2023-02-01T08:07:14;98453.41;;;7.27;58.75
42519;BME280;28147;47.520;18.920;2023-02-01T08:09:39;98447.94;;;7.22;59.00
42519;BME280;28147;47.520;18.920;2023-02-01T08:12:05;98451.22;;;7.17;58.87
42519;BME280;28147;47.520;18.920;2023-02-01T08:14:30;98449.88;;;6.95;59.59
42519;BME280;28147;47.520;18.920;2023-02-01T08:16:56;98450.41;;;6.45;60.11
42519;BME280;28147;47.520;18.920;2023-02-01T08:19:21;98468.63;;;6.80;59.97
42519;BME280;28147;47.520;18.920;2023-02-01T08:21:47;98480.25;;;6.79;59.96
42519;BME280;28147;47.520;18.920;2023-02-01T08:24:13;98492.88;;;6.70;60.30
42519;BME280;28147;47.520;18.920;2023-02-01T08:26:39;98480.91;;;6.28;61.37
42519;BME280;28147;47.520;18.920;2023-02-01T08:29:06;98490.88;;;6.46;61.05
42519;BME280;28147;47.520;18.920;2023-02-01T08:31:32;98490.66;;;6.34;61.86
42519;BME280;28147;47.520;18.920;2023-02-01T08:34:00;98480.09;;;6.41;61.73
42519;BME280;28147;47.520;18.920;2023-02-01T08:36:28;98492.50;;;6.60;61.86
42519;BME280;28147;47.520;18.920;2023-02-01T08:38:53;98492.72;;;6.52;61.47
42519;BME280;28147;47.520;18.920;2023-02-01T08:41:22;98486.78;;;6.50;61.35
42519;BME280;28147;47.520;18.920;2023-02-01T08:43:48;98486.75;;;6.70;61.65
42519;BME280;28147;47.520;18.920;2023-02-01T08:46:14;98485.53;;;6.72;61.26
42519;BME280;28147;47.520;18.920;2023-02-01T08:48:40;98485.66;;;7.04;60.04
42519;BME280;28147;47.520;18.920;2023-02-01T08:51:11;98478.22;;;6.74;60.82
42519;BME280;28147;47.520;18.920;2023-02-01T08:53:37;98480.41;;;6.97;60.13
42519;BME280;28147;47.520;18.920;2023-02-01T08:56:04;98472.41;;;7.11;60.21
42519;BME280;28147;47.520;18.920;2023-02-01T08:58:29;98476.78;;;7.75;58.63
42519;BME280;28147;47.520;18.920;2023-02-01T09:00:55;98474.00;;;7.95;58.00
42519;BME280;28147;47.520;18.920;2023-02-01T09:03:20;98461.03;;;7.55;58.24
42519;BME280;28147;47.520;18.920;2023-02-01T09:05:46;98452.78;;;7.31;59.01
42519;BME280;28147;47.520;18.920;2023-02-01T09:08:13;98466.88;;;7.25;59.35
42519;BME280;28147;47.520;18.920;2023-02-01T09:10:40;98460.13;;;7.29;59.22
42519;BME280;28147;47.520;18.920;2023-02-01T09:13:06;98451.53;;;8.04;57.69
42519;BME280;28147;47.520;18.920;2023-02-01T09:15:33;98459.47;;;8.79;55.93
42519;BME280;28147;47.520;18.920;2023-02-01T09:17:58;98459.31;;;9.11;55.17
42519;BME280;28147;47.520;18.920;2023-02-01T09:20:24;98457.69;;;8.91;54.96
42519;BME280;28147;47.520;18.920;2023-02-01T09:22:51;98456.25;;;8.27;56.39
42519;BME280;28147;47.520;18.920;2023-02-01T09:25:16;98462.59;;;8.51;56.29
42519;BME280;28147;47.520;18.920;2023-02-01T09:27:42;98445.78;;;8.57;55.04
42519;BME280;28147;47.520;18.920;2023-02-01T09:30:08;98455.28;;;9.38;54.82
42519;BME280;28147;47.520;18.920;2023-02-01T09:32:33;98472.41;;;9.42;54.71
42519;BME280;28147;47.520;18.920;2023-02-01T09:34:59;98477.03;;;9.17;54.58
42519;BME280;28147;47.520;18.920;2023-02-01T09:37:24;98484.66;;;8.70;55.67
42519;BME280;28147;47.520;18.920;2023-02-01T09:39:49;98465.94;;;9.20;54.24
42519;BME280;28147;47.520;18.920;2023-02-01T09:45:03;98491.31;;;8.79;55.43
42519;BME280;28147;47.520;18.920;2023-02-01T09:47:31;98486.69;;;8.49;57.07
42519;BME280;28147;47.520;18.920;2023-02-01T09:50:08;98479.97;;;8.90;57.92
42519;BME280;28147;47.520;18.920;2023-02-01T09:52:44;98468.38;;;8.85;56.86
42519;BME280;28147;47.520;18.920;2023-02-01T09:55:18;98480.84;;;9.02;55.99
42519;BME280;28147;47.520;18.920;2023-02-01T09:58:07;98483.22;;;9.11;55.95
42519;BME280;28147;47.520;18.920;2023-02-01T10:00:35;98478.19;;;9.21;56.33
42519;BME280;28147;47.520;18.920;2023-02-01T10:03:02;98475.94;;;8.63;56.72
42519;BME280;28147;47.520;18.920;2023-02-01T10:10:49;98456.59;;;8.05;59.52
42519;BME280;28147;47.520;18.920;2023-02-01T10:18:59;98425.22;;;8.02;60.24
42519;BME280;28147;47.520;18.920;2023-02-01T10:21:46;98419.16;;;7.70;60.37
42519;BME280;28147;47.520;18.920;2023-02-01T10:24:28;98412.31;;;7.56;60.51
42519;BME280;28147;47.520;18.920;2023-02-01T10:27:20;98424.50;;;7.64;60.36
42519;BME280;28147;47.520;18.920;2023-02-01T10:29:58;98414.47;;;9.02;57.63
42519;BME280;28147;47.520;18.920;2023-02-01T10:32:29;98405.94;;;9.72;56.11
42519;BME280;28147;47.520;18.920;2023-02-01T10:35:22;98407.63;;;9.85;54.69
42519;BME280;28147;47.520;18.920;2023-02-01T10:37:46;98413.94;;;10.61;53.35
42519;BME280;28147;47.520;18.920;2023-02-01T10:40:25;98415.31;;;10.40;52.82
42519;BME280;28147;47.520;18.920;2023-02-01T10:42:53;98416.50;;;9.79;54.73
42519;BME280;28147;47.520;18.920;2023-02-01T10:45:21;98406.94;;;8.99;56.20
42519;BME280;28147;47.520;18.920;2023-02-01T10:47:50;98409.31;;;8.71;57.36
42519;BME280;28147;47.520;18.920;2023-02-01T10:50:25;98402.38;;;8.70;57.76
42519;BME280;28147;47.520;18.920;2023-02-01T10:53:00;98398.63;;;8.59;58.34
42519;BME280;28147;47.520;18.920;2023-02-01T10:55:37;98399.50;;;8.28;58.95
42519;BME280;28147;47.520;18.920;2023-02-01T10:58:06;98409.09;;;8.29;59.10
42519;BME280;28147;47.520;18.920;2023-02-01T11:00:43;98396.72;;;8.23;59.65
42519;BME280;28147;47.520;18.920;2023-02-01T11:05:48;98386.34;;;7.96;60.21
42519;BME280;28147;47.520;18.920;2023-02-01T11:08:17;98379.25;;;7.65;61.38
42519;BME280;28147;47.520;18.920;2023-02-01T11:10:43;98379.75;;;7.80;61.64
42519;BME280;28147;47.520;18.920;2023-02-01T11:13:17;98379.97;;;7.72;61.39
42519;BME280;28147;47.520;18.920;2023-02-01T11:15:45;98374.91;;;7.71;62.90
42519;BME280;28147;47.520;18.920;2023-02-01T11:18:16;98365.13;;;7.96;64.72
42519;BME280;28147;47.520;18.920;2023-02-01T11:20:43;98352.03;;;7.51;67.00
42519;BME280;28147;47.520;18.920;2023-02-01T11:23:17;98364.34;;;7.64;67.05
42519;BME280;28147;47.520;18.920;2023-02-01T11:25:55;98357.22;;;7.65;67.80
42519;BME280;28147;47.520;18.920;2023-02-01T11:28:32;98346.63;;;7.65;69.69
42519;BME280;28147;47.520;18.920;2023-02-01T11:31:05;98347.97;;;7.49;69.70
42519;BME280;28147;47.520;18.920;2023-02-01T11:33:35;98344.75;;;7.47;69.92
42519;BME280;28147;47.520;18.920;2023-02-01T11:36:07;98339.00;;;7.50;70.24
42519;BME280;28147;47.520;18.920;2023-02-01T11:38:34;98339.91;;;7.37;70.71
42519;BME280;28147;47.520;18.920;2023-02-01T11:41:12;98337.50;;;7.29;72.13
42519;BME280;28147;47.520;18.920;2023-02-01T11:43:50;98331.84;;;7.25;72.04
42519;BME280;28147;47.520;18.920;2023-02-01T11:46:18;98314.69;;;6.96;72.77
42519;BME280;28147;47.520;18.920;2023-02-01T11:48:50;98317.78;;;6.93;73.62
42519;BME280;28147;47.520;18.920;2023-02-01T11:57:21;98297.59;;;6.99;74.07
42519;BME280;28147;47.520;18.920;2023-02-01T12:43:49;98325.41;;;6.05;79.97
42519;BME280;28147;47.520;18.920;2023-02-01T12:46:47;98302.25;;;5.67;81.29
42519;BME280;28147;47.520;18.920;2023-02-01T12:49:19;98303.06;;;5.74;80.96
42519;BME280;28147;47.520;18.920;2023-02-01T12:51:54;98300.41;;;5.81;80.64
42519;BME280;28147;47.520;18.920;2023-02-01T12:57:35;98285.75;;;6.18;81.05
42519;BME280;28147;47.520;18.920;2023-02-01T13:11:31;98260.03;;;6.83;79.82
42519;BME280;28147;47.520;18.920;2023-02-01T13:14:25;98263.44;;;6.91;79.82
42519;BME280;28147;47.520;18.920;2023-02-01T13:16:57;98265.94;;;7.11;78.90
42519;BME280;28147;47.520;18.920;2023-02-01T13:19:32;98262.66;;;7.15;78.82
42519;BME280;28147;47.520;18.920;2023-02-01T13:22:15;98254.56;;;7.10;79.07
42519;BME280;28147;47.520;18.920;2023-02-01T13:27:11;98243.66;;;6.17;81.61
42519;BME280;28147;47.520;18.920;2023-02-01T13:43:23;98235.19;;;6.46;81.68
42519;BME280;28147;47.520;18.920;2023-02-01T13:45:53;98264.03;;;6.54;80.85
42519;BME280;28147;47.520;18.920;2023-02-01T13:50:58;98268.47;;;6.67;81.17
42519;BME280;28147;47.520;18.920;2023-02-01T13:53:37;98274.88;;;6.85;80.49
42519;BME280;28147;47.520;18.920;2023-02-01T13:56:13;98283.88;;;6.77;80.47
42519;BME280;28147;47.520;18.920;2023-02-01T13:58:42;98275.50;;;6.80;80.31
42519;BME280;28147;47.520;18.920;2023-02-01T14:24:32;98275.81;;;6.97;79.24
42519;BME280;28147;47.520;18.920;2023-02-01T14:27:14;98270.81;;;7.14;78.80
42519;BME280;28147;47.520;18.920;2023-02-01T14:29:49;98279.47;;;6.96;80.18
42519;BME280;28147;47.520;18.920;2023-02-01T14:32:21;98283.78;;;7.22;79.31
42519;BME280;28147;47.520;18.920;2023-02-01T14:47:52;98275.78;;;7.03;78.37
42519;BME280;28147;47.520;18.920;2023-02-01T15:00:22;98292.59;;;6.32;78.83
42519;BME280;28147;47.520;18.920;2023-02-01T15:09:47;98282.47;;;6.23;78.14
42519;BME280;28147;47.520;18.920;2023-02-01T15:26:51;98281.69;;;6.16;77.20
42519;BME280;28147;47.520;18.920;2023-02-01T15:34:58;98290.97;;;6.38;76.34
42519;BME280;28147;47.520;18.920;2023-02-01T15:41:41;98297.44;;;6.42;76.05
42519;BME280;28147;47.520;18.920;2023-02-01T15:45:25;98303.91;;;6.60;75.27
42519;BME280;28147;47.520;18.920;2023-02-01T15:48:41;98317.41;;;6.38;75.19
42519;BME280;28147;47.520;18.920;2023-02-01T15:51:13;98309.84;;;6.42;74.86
42519;BME280;28147;47.520;18.920;2023-02-01T15:54:01;98314.78;;;6.25;74.67
42519;BME280;28147;47.520;18.920;2023-02-01T15:59:46;98333.25;;;6.38;74.78
42519;BME280;28147;47.520;18.920;2023-02-01T16:10:40;98350.59;;;6.07;75.37
42519;BME280;28147;47.520;18.920;2023-02-01T16:13:06;98347.97;;;6.07;76.61
42519;BME280;28147;47.520;18.920;2023-02-01T16:18:47;98339.84;;;5.76;78.08
42519;BME280;28147;47.520;18.920;2023-02-01T16:28:34;98335.97;;;5.98;77.35
42519;BME280;28147;47.520;18.920;2023-02-01T16:31:00;98338.19;;;6.15;77.58
42519;BME280;28147;47.520;18.920;2023-02-01T16:33:26;98332.25;;;6.32;76.44
42519;BME280;28147;47.520;18.920;2023-02-01T16:38:03;98321.72;;;6.13;76.47
42519;BME280;28147;47.520;18.920;2023-02-01T16:52:27;98316.97;;;6.41;75.97
42519;BME280;28147;47.520;18.920;2023-02-01T16:59:43;98324.50;;;6.44;75.75
42519;BME280;28147;47.520;18.920;2023-02-01T17:02:27;98317.63;;;6.23;76.04
42519;BME280;28147;47.520;18.920;2023-02-01T17:32:56;98306.31;;;5.56;75.54
42519;BME280;28147;47.520;18.920;2023-02-01T18:18:11;98331.09;;;5.35;72.19
42519;BME280;28147;47.520;18.920;2023-02-01T19:14:58;98344.47;;;5.87;70.08
42519;BME280;28147;47.520;18.920;2023-02-01T19:54:51;98334.34;;;5.84;67.28
42519;BME280;28147;47.520;18.920;2023-02-01T19:57:17;98324.59;;;6.04;66.77
42519;BME280;28147;47.520;18.920;2023-02-01T19:59:42;98332.13;;;5.88;66.95
42519;BME280;28147;47.520;18.920;2023-02-01T20:14:23;98329.69;;;5.66;68.35
42519;BME280;28147;47.520;18.920;2023-02-01T20:22:25;98309.16;;;6.01;66.64
42519;BME280;28147;47.520;18.920;2023-02-01T20:26:28;98313.38;;;6.16;66.14
42519;BME280;28147;47.520;18.920;2023-02-01T20:29:29;98316.06;;;5.82;68.25
42519;BME280;28147;47.520;18.920;2023-02-01T20:38:41;98326.63;;;5.89;69.98
42519;BME280;28147;47.520;18.920;2023-02-01T20:41:08;98333.53;;;5.83;70.02
42519;BME280;28147;47.520;18.920;2023-02-01T20:43:34;98333.53;;;5.70;71.00
42519;BME280;28147;47.520;18.920;2023-02-01T20:46:00;98342.06;;;5.46;72.14
42519;BME280;28147;47.520;18.920;2023-02-01T20:48:26;98335.16;;;5.58;73.34
42519;BME280;28147;47.520;18.920;2023-02-01T20:50:57;98349.56;;;5.55;74.19
42519;BME280;28147;47.520;18.920;2023-02-01T20:53:23;98318.31;;;5.39;75.60
42519;BME280;28147;47.520;18.920;2023-02-01T20:55:53;98323.56;;;5.59;75.17
42519;BME280;28147;47.520;18.920;2023-02-01T20:58:19;98326.22;;;5.66;75.36
42519;BME280;28147;47.520;18.920;2023-02-01T21:00:45;98320.94;;;5.39;76.04
42519;BME280;28147;47.520;18.920;2023-02-01T21:03:11;98320.94;;;5.39;76.80
42519;BME280;28147;47.520;18.920;2023-02-01T21:05:36;98324.78;;;5.36;77.40
42519;BME280;28147;47.520;18.920;2023-02-01T21:09:56;98312.78;;;5.34;77.05
42519;BME280;28147;47.520;18.920;2023-02-01T21:12:22;98315.88;;;5.51;76.07
42519;BME280;28147;47.520;18.920;2023-02-01T21:14:48;98308.34;;;5.54;75.73
42519;BME280;28147;47.520;18.920;2023-02-01T21:17:13;98306.13;;;5.58;75.79
42519;BME280;28147;47.520;18.920;2023-02-01T21:19:39;98305.50;;;5.63;76.08
42519;BME280;28147;47.520;18.920;2023-02-01T21:26:18;98294.72;;;5.18;77.76
42519;BME280;28147;47.520;18.920;2023-02-01T21:46:51;98313.63;;;5.54;78.38
42519;BME280;28147;47.520;18.920;2023-02-01T21:56:30;98311.38;;;5.31;79.61
42519;BME280;28147;47.520;18.920;2023-02-01T22:45:29;98262.84;;;5.92;78.71
42519;BME280;28147;47.520;18.920;2023-02-01T22:53:25;98254.69;;;6.00;78.01
